Other Surface Observations
Issued by NWS Great Falls, MT

Home | Current Version | Previous Version | Text Only | Print | Product List | Glossary On
Versions: 1 2 3 4 5 6 7 8 9 10 11 12 13 14 15 16 17 18 19 20 21 22 23 24 25 26 27 28 29 30 31 32 33 34 35 36 37 38 39 40 41 42 43 44 45 46 47 48 49 50
000
SXUS55 KTFX 292029
OSOTFX
AREA AWOS OBSERVATIONS
NATIONAL WEATHER SERVICE GREAT FALLS MT
0229 PM MDT SUN MAY 29 2016

METAR KPWD 292030Z AUTO 25015KT 10SM 21/01 A2995 RMK PLENTYWOOD
METAR KPO1 292030Z AUTO 26014G17KT 10SM 22/02 A2996 RMK POPLAR
METAR K1S3 292030Z AUTO 28003KT 10SM 24/07 A2997 RMK FORSYTH
METAR KS71 292030Z AUTO 26013G17KT 10SM 22/02 A2993 RMK CHINOOK
METAR K38S 292030Z AUTO 02006KT 10SM 18/01 A3002 RMK DEER LODGE
METAR K3U3 292030Z AUTO 14003KT 19/M03 A3003 RMK ANACONDA
METAR K6S5 292030Z AUTO 23014KT 10SM 20/M01 A2998 RMK HAMILTON
METAR KS59 292030Z AUTO 26003KT 8SM 17/04 A2995 RMK LIBBY
METAR K88M 292030Z AUTO 17006KT 10SM 19/03 A2992 RMK EUREKA



USA.gov is the U.S. government's official web portal to all federal, state and local government web resources and services.